createdAt,value
2017-11-07T00:00:43.851Z,14.90
2017-11-07T00:03:11.336Z,11.17
2017-11-07T00:05:38.844Z,17.90
2017-11-07T00:08:06.339Z,14.17
2017-11-07T00:10:33.845Z,11.27
2017-11-07T00:13:02.117Z,7.33
2017-11-07T00:15:30.380Z,14.27
2017-11-07T00:17:57.864Z,8.03
2017-11-07T00:20:28.374Z,9.00
2017-11-07T00:22:56.631Z,9.33
2017-11-07T00:25:24.125Z,12.23
2017-11-07T00:27:51.639Z,10.73
2017-11-07T00:30:19.124Z,7.57
2017-11-07T00:32:46.600Z,16.03
2017-11-07T00:35:14.209Z,11.40
2017-11-07T00:37:41.692Z,8.00
2017-11-07T00:40:09.931Z,9.13
2017-11-07T00:42:37.454Z,9.43
2017-11-07T00:45:04.939Z,11.17
2017-11-07T00:47:32.400Z,8.20
2017-11-07T00:49:59.925Z,9.70
2017-11-07T00:52:27.414Z,12.37
2017-11-07T00:54:55.883Z,12.17
2017-11-07T00:57:23.386Z,8.37
2017-11-07T00:59:51.654Z,11.40
2017-11-07T01:02:19.907Z,8.07
2017-11-07T01:04:47.481Z,8.50
2017-11-07T01:07:15.133Z,6.87
2017-11-07T01:09:42.628Z,12.73
2017-11-07T01:12:10.123Z,10.10
2017-11-07T01:14:37.604Z,15.93
2017-11-07T01:17:05.113Z,11.47
2017-11-07T01:19:32.728Z,11.13
2017-11-07T01:22:00.228Z,13.03
2017-11-07T01:24:27.712Z,7.57
2017-11-07T01:26:55.209Z,6.60
2017-11-07T01:29:23.456Z,9.40
2017-11-07T01:31:50.950Z,8.60
2017-11-07T01:34:18.488Z,10.40
2017-11-07T01:36:45.969Z,9.40
2017-11-07T01:39:13.488Z,8.53
2017-11-07T01:41:41.108Z,10.30
2017-11-07T01:44:08.592Z,9.20
2017-11-07T01:46:36.085Z,10.87
2017-11-07T01:49:04.368Z,8.90
2017-11-07T01:51:32.622Z,10.37
2017-11-07T01:54:00.884Z,12.90
2017-11-07T01:56:28.604Z,9.17
2017-11-07T01:58:56.118Z,13.07
2017-11-07T02:01:24.369Z,10.00
2017-11-07T02:03:51.973Z,12.07
2017-11-07T02:06:19.459Z,15.33
2017-11-07T02:08:46.944Z,12.80
2017-11-07T02:11:14.443Z,13.00
2017-11-07T02:13:41.939Z,12.57
2017-11-07T02:16:09.416Z,16.10
2017-11-07T02:18:37.026Z,20.87
2017-11-07T02:21:04.519Z,12.00
2017-11-07T02:23:32.015Z,11.10
2017-11-07T02:26:00.296Z,16.97
2017-11-07T02:28:28.543Z,9.97
2017-11-07T02:30:56.035Z,13.60
2017-11-07T02:33:23.650Z,10.90
2017-11-07T02:35:51.138Z,13.00
2017-11-07T02:38:19.385Z,13.50
2017-11-07T02:40:46.890Z,12.83
2017-11-07T02:43:14.367Z,16.00
2017-11-07T02:45:43.832Z,12.73
2017-11-07T02:48:12.113Z,13.73
2017-11-07T02:50:39.640Z,8.37
2017-11-07T02:53:07.133Z,11.20
2017-11-07T02:55:34.700Z,11.17
2017-11-07T02:58:02.215Z,10.67
2017-11-07T03:00:30.527Z,13.20
2017-11-07T03:02:59.402Z,12.30
2017-11-07T03:05:33.250Z,23.90
2017-11-07T03:08:06.993Z,10.23
2017-11-07T03:10:34.500Z,8.70
2017-11-07T03:13:02.036Z,11.20
2017-11-07T03:15:29.688Z,14.00
2017-11-07T03:17:57.178Z,12.53
2017-11-07T03:20:24.709Z,13.40
2017-11-07T03:22:58.457Z,12.27
2017-11-07T03:25:26.057Z,11.27
2017-11-07T03:27:53.604Z,11.63
2017-11-07T03:42:08.513Z,10.40
2017-11-07T04:05:01.565Z,9.10
2017-11-07T04:13:47.303Z,16.97
2017-11-07T04:16:14.996Z,8.63
2017-11-07T04:18:43.388Z,8.83
2017-11-07T04:21:11.100Z,8.43
2017-11-07T04:23:38.720Z,10.60
2017-11-07T04:26:06.368Z,8.60
2017-11-07T04:28:33.971Z,10.60
2017-11-07T04:31:01.696Z,8.10
2017-11-07T04:33:29.240Z,9.03
2017-11-07T04:35:57.616Z,9.73
2017-11-07T04:38:25.318Z,9.37
2017-11-07T04:40:53.768Z,7.60
2017-11-07T04:43:21.312Z,9.50
2017-11-07T04:45:48.869Z,11.37
2017-11-07T04:48:16.464Z,13.07
2017-11-07T04:50:43.978Z,11.13
2017-11-07T04:53:11.483Z,9.33
2017-11-07T04:55:39.722Z,18.60
2017-11-07T04:58:07.215Z,13.57
2017-11-07T05:00:34.732Z,9.50
2017-11-07T05:03:02.210Z,10.53
2017-11-07T05:05:29.704Z,10.60
2017-11-07T05:07:57.203Z,14.33
2017-11-07T05:10:25.456Z,10.23
2017-11-07T05:12:52.924Z,8.00
2017-11-07T05:15:20.428Z,10.20
2017-11-07T05:17:47.934Z,13.03
2017-11-07T05:20:15.413Z,12.20
2017-11-07T05:22:42.917Z,11.50
2017-11-07T05:25:10.388Z,9.63
2017-11-07T05:27:37.868Z,12.00
2017-11-07T05:30:05.463Z,12.73
2017-11-07T05:32:32.996Z,9.47
2017-11-07T05:35:00.489Z,17.60
2017-11-07T05:37:28.081Z,8.47
2017-11-07T05:39:56.334Z,8.20
2017-11-07T05:42:23.859Z,10.13
2017-11-07T05:44:51.373Z,11.90
2017-11-07T05:47:18.872Z,11.40
2017-11-07T05:49:46.383Z,10.13
2017-11-07T05:52:13.909Z,11.27
2017-11-07T05:54:41.379Z,9.47
2017-11-07T05:57:08.926Z,10.20
2017-11-07T05:59:36.536Z,11.60
2017-11-07T06:02:04.015Z,7.87
2017-11-07T06:04:32.365Z,13.57
2017-11-07T06:06:59.974Z,15.93
2017-11-07T06:09:28.234Z,12.77
2017-11-07T06:11:55.720Z,10.37
2017-11-07T06:14:23.341Z,9.73
2017-11-07T06:16:50.835Z,11.30
2017-11-07T06:19:18.321Z,14.10
2017-11-07T06:21:45.930Z,12.27
2017-11-07T06:24:14.174Z,10.70
2017-11-07T06:26:41.708Z,7.70
2017-11-07T06:29:09.228Z,15.73
2017-11-07T06:31:36.700Z,7.87
2017-11-07T06:34:04.213Z,13.23
2017-11-07T06:36:32.488Z,11.03
2017-11-07T06:39:01.377Z,12.27
2017-11-07T06:41:29.636Z,13.60
2017-11-07T06:43:57.139Z,13.60
2017-11-07T06:46:24.620Z,17.23
2017-11-07T06:48:52.891Z,10.07
2017-11-07T06:51:20.672Z,11.10
2017-11-07T06:53:48.153Z,14.17
2017-11-07T06:56:16.396Z,11.77
2017-11-07T06:58:43.900Z,14.70
2017-11-07T07:01:11.387Z,16.30
2017-11-07T07:03:40.208Z,12.20
2017-11-07T07:06:07.712Z,13.97
2017-11-07T07:08:35.199Z,15.50
2017-11-07T07:11:02.679Z,16.00
2017-11-07T07:13:30.188Z,18.00
2017-11-07T07:15:58.067Z,11.93
2017-11-07T07:18:25.564Z,16.53
2017-11-07T07:20:53.085Z,17.03
2017-11-07T07:23:21.960Z,11.40
2017-11-07T07:25:50.364Z,12.03
2017-11-07T07:28:17.969Z,13.80
2017-11-07T07:30:46.216Z,24.57
2017-11-07T07:33:13.704Z,16.63
2017-11-07T07:35:41.309Z,15.97
2017-11-07T07:38:08.808Z,18.73
2017-11-07T07:40:36.312Z,22.13
2017-11-07T07:43:03.920Z,15.13
2017-11-07T07:45:31.415Z,18.23
2017-11-07T07:47:58.901Z,13.87
2017-11-07T07:50:26.400Z,18.27
2017-11-07T07:52:53.882Z,23.83
2017-11-07T07:55:22.148Z,21.37
2017-11-07T07:57:49.656Z,21.80
2017-11-07T08:00:17.905Z,20.87
2017-11-07T08:02:45.379Z,34.73
2017-11-07T08:05:12.881Z,32.80
2017-11-07T08:07:41.127Z,23.83
2017-11-07T08:10:08.757Z,30.23
2017-11-07T08:12:36.289Z,22.03
2017-11-07T08:15:03.793Z,28.03
2017-11-07T08:17:31.299Z,30.13
2017-11-07T08:19:58.905Z,31.00
2017-11-07T08:22:26.402Z,29.63
2017-11-07T08:24:54.674Z,23.97
2017-11-07T08:27:22.207Z,28.03
2017-11-07T08:29:49.698Z,25.80
2017-11-07T08:32:17.179Z,33.00
2017-11-07T08:34:44.716Z,25.67
2017-11-07T08:37:12.204Z,29.03
2017-11-07T08:39:39.857Z,35.03
2017-11-07T08:42:07.466Z,27.10
2017-11-07T08:44:34.956Z,36.60
2017-11-07T08:47:03.169Z,31.43
2017-11-07T08:49:30.689Z,31.23
2017-11-07T08:51:58.179Z,28.60
2017-11-07T08:54:25.660Z,32.70
2017-11-07T08:56:55.308Z,27.73
2017-11-07T08:59:22.799Z,29.73
2017-11-07T09:01:50.297Z,26.00
2017-11-07T09:04:17.822Z,23.63
2017-11-07T09:06:45.305Z,27.57
2017-11-07T09:09:12.817Z,24.63
2017-11-07T09:11:40.436Z,31.57
2017-11-07T09:14:07.916Z,32.53
2017-11-07T09:16:35.414Z,34.53
2017-11-07T09:19:02.927Z,30.47
2017-11-07T09:21:31.258Z,30.07
2017-11-07T09:23:58.763Z,30.43
2017-11-07T09:26:26.312Z,30.73
2017-11-07T09:28:53.796Z,40.63
2017-11-07T09:31:21.272Z,31.50
2017-11-07T09:33:48.872Z,29.07
2017-11-07T09:36:17.120Z,37.97
2017-11-07T09:38:44.599Z,30.33
2017-11-07T09:41:12.118Z,31.27
2017-11-07T09:43:39.620Z,25.87
2017-11-07T09:46:07.112Z,29.70
2017-11-07T09:48:34.728Z,27.97
2017-11-07T09:51:02.225Z,29.03
2017-11-07T09:53:29.713Z,39.07
2017-11-07T09:55:57.228Z,28.73
2017-11-07T09:58:24.727Z,27.70
2017-11-07T10:00:52.224Z,27.83
2017-11-07T10:03:19.740Z,27.90
2017-11-07T10:05:48.004Z,27.47
2017-11-07T10:08:15.492Z,27.60
2017-11-07T10:10:43.765Z,27.80
2017-11-07T10:13:11.262Z,28.03
2017-11-07T10:15:39.504Z,25.30
2017-11-07T10:18:07.037Z,23.80
2017-11-07T10:20:34.517Z,26.90
2017-11-07T10:23:02.011Z,23.60
2017-11-07T10:25:29.517Z,31.70
2017-11-07T10:27:57.771Z,26.00
2017-11-07T10:30:25.265Z,26.63
2017-11-07T10:32:53.651Z,28.20
2017-11-07T10:35:21.129Z,27.93
2017-11-07T10:37:48.629Z,30.00
2017-11-07T10:40:16.141Z,27.63
2017-11-07T10:42:43.611Z,29.60
2017-11-07T10:45:11.088Z,24.60
2017-11-07T10:47:38.608Z,23.97
2017-11-07T10:50:06.097Z,26.60
2017-11-07T10:52:33.593Z,26.80
2017-11-07T10:55:01.216Z,25.67
2017-11-07T10:57:29.460Z,32.57
2017-11-07T10:59:56.957Z,24.33
2017-11-07T11:02:24.496Z,25.73
2017-11-07T11:04:52.004Z,24.33
2017-11-07T11:07:20.260Z,27.23
2017-11-07T11:09:47.794Z,23.67
2017-11-07T11:12:15.273Z,18.10
2017-11-07T11:14:42.762Z,26.73
2017-11-07T11:17:10.267Z,23.10
2017-11-07T11:19:37.760Z,23.90
2017-11-07T11:22:05.237Z,22.43
2017-11-07T11:24:32.758Z,22.47
2017-11-07T11:27:00.250Z,20.23
2017-11-07T11:29:27.745Z,26.27
2017-11-07T11:31:56.024Z,19.53
2017-11-07T11:34:24.276Z,24.83
2017-11-07T11:36:51.792Z,24.97
2017-11-07T11:39:19.420Z,25.07
2017-11-07T11:41:46.901Z,26.70
2017-11-07T11:44:14.389Z,25.70
2017-11-07T11:46:41.994Z,22.97
2017-11-07T11:49:09.479Z,24.10
2017-11-07T11:51:36.960Z,32.03
2017-11-07T11:54:05.623Z,27.03
2017-11-07T11:56:33.142Z,30.23
2017-11-07T11:59:00.640Z,27.90
2017-11-07T12:01:28.168Z,29.30
2017-11-07T12:03:55.652Z,28.23
2017-11-07T12:06:23.901Z,27.30
2017-11-07T12:08:51.540Z,32.13
2017-11-07T12:11:19.792Z,26.70
2017-11-07T12:13:47.288Z,28.27
2017-11-07T12:16:14.799Z,30.57
2017-11-07T12:18:42.289Z,36.77
2017-11-07T12:21:09.763Z,31.00
2017-11-07T12:23:37.316Z,31.60
2017-11-07T12:26:04.807Z,26.73
2017-11-07T12:28:32.298Z,22.33
2017-11-07T12:30:59.933Z,25.00
2017-11-07T12:33:27.419Z,27.37
2017-11-07T12:35:54.904Z,37.57
2017-11-07T12:38:22.407Z,26.27
2017-11-07T12:40:49.902Z,24.80
2017-11-07T12:43:18.148Z,27.50
2017-11-07T12:45:45.678Z,26.50
2017-11-07T12:48:13.165Z,28.00
2017-11-07T12:50:52.450Z,31.17
2017-11-07T12:53:19.950Z,28.53
2017-11-07T12:55:48.201Z,30.37
2017-11-07T12:58:15.725Z,33.77
2017-11-07T13:00:43.212Z,36.43
2017-11-07T13:03:10.699Z,36.50
2017-11-07T13:05:38.201Z,37.63
2017-11-07T13:08:05.687Z,31.97
2017-11-07T13:10:33.938Z,33.37
2017-11-07T13:13:01.541Z,32.67
2017-11-07T13:15:29.795Z,37.07
2017-11-07T13:17:57.283Z,29.90
2017-11-07T13:20:24.787Z,35.30
2017-11-07T13:22:53.044Z,35.13
2017-11-07T13:25:20.544Z,31.00
2017-11-07T13:27:48.820Z,31.43
2017-11-07T13:30:17.062Z,38.20
2017-11-07T13:32:44.551Z,29.67
2017-11-07T13:35:12.067Z,34.50
2017-11-07T13:37:39.547Z,28.47
2017-11-07T13:40:07.029Z,28.47
2017-11-07T13:42:34.527Z,34.87
2017-11-07T13:45:02.004Z,34.73
2017-11-07T13:47:29.481Z,29.23
2017-11-07T13:49:57.075Z,30.67
2017-11-07T13:52:24.561Z,23.53
2017-11-07T13:54:52.041Z,22.87
2017-11-07T13:57:19.539Z,26.30
2017-11-07T13:59:47.032Z,32.23
2017-11-07T14:02:14.520Z,29.80
2017-11-07T14:04:42.892Z,24.87
2017-11-07T14:07:10.377Z,24.43
2017-11-07T14:09:37.868Z,38.47
2017-11-07T14:12:05.385Z,31.30
2017-11-07T14:14:32.863Z,29.13
2017-11-07T14:17:00.348Z,35.00
2017-11-07T14:19:27.845Z,30.80
2017-11-07T14:21:56.098Z,28.00
2017-11-07T14:24:23.578Z,29.63
2017-11-07T14:26:51.075Z,41.70
2017-11-07T14:29:19.325Z,26.03
2017-11-07T14:31:46.804Z,32.07
2017-11-07T14:34:14.418Z,31.47
2017-11-07T14:36:41.896Z,27.40
2017-11-07T14:39:09.388Z,28.60
2017-11-07T14:41:36.915Z,36.27
2017-11-07T14:44:05.170Z,42.33
2017-11-07T14:46:32.647Z,29.10
2017-11-07T14:49:00.168Z,44.93
2017-11-07T14:51:27.653Z,37.27
2017-11-07T14:53:55.144Z,33.97
2017-11-07T14:56:22.665Z,35.30
2017-11-07T14:58:50.919Z,32.20
2017-11-07T15:01:18.401Z,38.20
2017-11-07T15:03:45.920Z,40.03
2017-11-07T15:06:13.399Z,34.67
2017-11-07T15:08:40.885Z,40.10
2017-11-07T15:11:08.496Z,40.53
2017-11-07T15:13:36.747Z,41.23
2017-11-07T15:16:04.233Z,38.53
2017-11-07T15:18:31.739Z,31.97
2017-11-07T15:20:59.231Z,43.27
2017-11-07T15:23:26.711Z,33.93
2017-11-07T15:25:54.213Z,34.97
2017-11-07T15:28:21.705Z,32.53
2017-11-07T15:30:49.960Z,37.73
2017-11-07T15:33:17.490Z,37.40
2017-11-07T15:35:44.980Z,47.23
2017-11-07T15:38:12.464Z,45.20
2017-11-07T15:40:40.221Z,43.97
2017-11-07T15:43:07.700Z,40.03
2017-11-07T15:45:35.188Z,33.87
2017-11-07T15:48:02.696Z,38.77
2017-11-07T15:50:30.998Z,36.80
2017-11-07T15:52:58.484Z,40.47
2017-11-07T15:55:25.987Z,41.57
2017-11-07T15:57:53.471Z,42.23
2017-11-07T16:00:20.964Z,34.33
2017-11-07T16:02:48.472Z,39.73
2017-11-07T16:05:15.960Z,36.43
2017-11-07T16:07:43.440Z,35.70
2017-11-07T16:10:11.652Z,33.37
2017-11-07T16:12:39.143Z,40.80
2017-11-07T16:15:06.624Z,38.67
2017-11-07T16:17:34.888Z,43.37
2017-11-07T16:20:02.397Z,42.73
2017-11-07T16:22:29.880Z,34.70
2017-11-07T16:24:57.384Z,40.57
2017-11-07T16:27:24.868Z,41.53
2017-11-07T16:29:52.351Z,32.97
2017-11-07T16:32:20.626Z,34.50
2017-11-07T16:34:48.124Z,40.07
2017-11-07T16:37:15.608Z,42.80
2017-11-07T16:39:43.250Z,35.20
2017-11-07T16:42:11.500Z,44.17
2017-11-07T16:44:39.034Z,42.83
2017-11-07T16:47:06.572Z,49.83
2017-11-07T16:49:34.059Z,41.50
2017-11-07T16:52:02.304Z,35.87
2017-11-07T16:54:29.864Z,41.97
2017-11-07T16:56:57.660Z,41.73
2017-11-07T16:59:25.156Z,40.13
2017-11-07T17:01:53.528Z,32.40
2017-11-07T17:04:21.014Z,25.73
2017-11-07T17:06:48.489Z,34.33
2017-11-07T17:09:15.988Z,27.00
2017-11-07T17:11:43.467Z,28.00
2017-11-07T17:14:11.739Z,26.70
2017-11-07T17:16:39.336Z,25.53
2017-11-07T17:19:06.819Z,21.57
2017-11-07T17:21:34.305Z,23.53
2017-11-07T17:24:01.826Z,20.60
2017-11-07T17:26:29.322Z,25.10
2017-11-07T17:28:56.799Z,19.80
2017-11-07T17:31:24.314Z,26.67
2017-11-07T17:33:51.797Z,25.27
2017-11-07T17:36:20.044Z,24.90
2017-11-07T17:38:47.544Z,25.00
2017-11-07T17:41:15.024Z,25.60
2017-11-07T17:43:42.509Z,26.93
2017-11-07T17:46:10.018Z,26.73
2017-11-07T17:48:37.516Z,26.63
2017-11-07T17:51:05.808Z,23.50
2017-11-07T17:53:33.324Z,22.50
2017-11-07T17:56:00.817Z,27.40
2017-11-07T17:58:28.299Z,29.90
2017-11-07T18:00:55.796Z,21.70
2017-11-07T18:03:23.296Z,28.13
2017-11-07T18:05:50.775Z,26.53
2017-11-07T18:08:18.380Z,22.37
2017-11-07T18:10:45.860Z,24.90
2017-11-07T18:13:13.367Z,25.07
2017-11-07T18:15:41.753Z,26.37
2017-11-07T18:18:09.995Z,25.50
2017-11-07T18:20:38.243Z,21.33
2017-11-07T18:23:06.614Z,23.30
2017-11-07T18:25:34.864Z,24.17
2017-11-07T18:28:02.345Z,24.13
2017-11-07T18:30:29.859Z,24.20
2017-11-07T18:32:58.101Z,21.90
2017-11-07T18:35:25.581Z,21.43
2017-11-07T18:37:53.091Z,25.00
2017-11-07T18:40:20.593Z,25.07
2017-11-07T18:42:48.079Z,36.83
2017-11-07T18:45:15.675Z,25.30
2017-11-07T18:47:43.166Z,106.10
2017-11-07T18:50:12.244Z,32.90
2017-11-07T18:52:39.847Z,23.67
2017-11-07T18:55:08.089Z,39.77
2017-11-07T18:57:36.348Z,27.13
2017-11-07T19:00:03.865Z,27.13
2017-11-07T19:02:31.356Z,27.13
2017-11-07T19:04:58.850Z,19.93
2017-11-07T19:07:26.351Z,19.10
2017-11-07T19:09:53.845Z,20.97
2017-11-07T19:12:21.332Z,26.50
2017-11-07T19:14:48.936Z,24.90
2017-11-07T19:17:16.417Z,24.33
2017-11-07T19:19:43.902Z,29.20
2017-11-07T19:22:11.505Z,20.80
2017-11-07T19:24:38.994Z,24.77
2017-11-07T19:27:07.274Z,22.03
2017-11-07T19:29:34.884Z,24.67
2017-11-07T19:32:02.364Z,22.43
2017-11-07T19:34:29.885Z,25.17
2017-11-07T19:36:58.171Z,28.80
2017-11-07T19:39:25.653Z,30.27
2017-11-07T19:41:53.139Z,31.27
2017-11-07T19:44:21.407Z,32.43
2017-11-07T19:46:48.940Z,27.63
2017-11-07T19:49:16.418Z,34.47
2017-11-07T19:51:43.920Z,32.10
2017-11-07T19:54:11.396Z,27.00
2017-11-07T19:56:38.880Z,31.53
2017-11-07T19:59:07.143Z,29.20
2017-11-07T20:01:36.624Z,28.53
2017-11-07T20:04:04.112Z,26.63
2017-11-07T20:06:31.727Z,28.97
2017-11-07T20:08:59.211Z,24.83
2017-11-07T20:11:26.711Z,25.00
2017-11-07T20:13:54.304Z,29.53
2017-11-07T20:16:21.792Z,25.93
2017-11-07T20:18:49.275Z,31.13
2017-11-07T20:21:17.652Z,35.27
2017-11-07T20:26:19.042Z,29.70
2017-11-07T20:28:46.532Z,25.80
2017-11-07T20:31:14.777Z,36.30
2017-11-07T20:33:42.318Z,34.47
2017-11-07T20:36:09.800Z,27.30
2017-11-07T20:38:37.299Z,28.90
2017-11-07T20:41:04.920Z,31.57
2017-11-07T20:43:32.437Z,25.57
2017-11-07T20:45:59.921Z,31.33
2017-11-07T20:48:27.527Z,32.33
2017-11-07T20:50:55.776Z,32.50
2017-11-07T20:53:23.272Z,32.00
2017-11-07T20:55:51.660Z,32.63
2017-11-07T20:58:19.163Z,34.63
2017-11-07T21:00:46.646Z,32.80
2017-11-07T21:03:14.161Z,34.70
2017-11-07T21:05:41.650Z,34.67
2017-11-07T21:08:09.904Z,32.80
2017-11-07T21:10:37.418Z,31.43
2017-11-07T21:13:05.664Z,32.47
2017-11-07T21:15:33.175Z,29.50
2017-11-07T21:18:01.473Z,28.50
2017-11-07T21:20:28.977Z,36.40
2017-11-07T21:22:56.487Z,32.50
2017-11-07T21:25:24.097Z,29.57
2017-11-07T21:27:51.664Z,37.10
2017-11-07T21:30:19.241Z,32.70
2017-11-07T21:32:46.740Z,30.10
2017-11-07T21:35:14.225Z,33.23
2017-11-07T21:37:41.720Z,33.40
2017-11-07T21:40:09.229Z,27.33
2017-11-07T21:42:36.715Z,30.27
2017-11-07T21:45:04.200Z,35.23
2017-11-07T21:47:31.741Z,32.60
2017-11-07T21:49:59.229Z,33.23
2017-11-07T21:52:26.736Z,35.67
2017-11-07T21:54:54.337Z,34.30
2017-11-07T21:57:22.593Z,34.27
2017-11-07T21:59:50.090Z,32.90
2017-11-07T22:02:18.396Z,37.43
2017-11-07T22:04:45.888Z,41.33
2017-11-07T22:07:13.429Z,37.60
2017-11-07T22:09:41.804Z,35.53
2017-11-07T22:12:10.092Z,34.20
2017-11-07T22:14:37.568Z,40.53
2017-11-07T22:17:05.895Z,34.60
2017-11-07T22:19:33.382Z,44.20
2017-11-07T22:22:00.887Z,31.77
2017-11-07T22:24:29.278Z,33.80
2017-11-07T22:26:56.810Z,34.20
2017-11-07T22:29:24.294Z,37.67
2017-11-07T22:31:51.792Z,46.17
2017-11-07T22:34:19.288Z,42.27
2017-11-07T22:36:46.773Z,45.17
2017-11-07T22:39:14.328Z,42.13
2017-11-07T22:41:41.844Z,41.30
2017-11-07T22:44:09.328Z,40.90
2017-11-07T22:46:36.932Z,41.80
2017-11-07T22:49:04.420Z,35.90
2017-11-07T22:51:31.909Z,44.27
2017-11-07T22:53:59.508Z,44.13
2017-11-07T22:56:27.017Z,42.63
2017-11-07T22:58:55.264Z,40.83
2017-11-07T23:01:22.795Z,44.90
2017-11-07T23:03:51.049Z,39.60
2017-11-07T23:06:18.555Z,39.03
2017-11-07T23:08:46.065Z,43.47
2017-11-07T23:11:13.588Z,33.90
2017-11-07T23:13:41.845Z,36.87
2017-11-07T23:19:00.585Z,37.47
2017-11-07T23:21:28.083Z,51.47
2017-11-07T23:23:55.601Z,32.97
2017-11-07T23:26:23.109Z,33.77
2017-11-07T23:28:50.627Z,56.60
2017-11-07T23:31:18.142Z,50.30
2017-11-07T23:33:45.629Z,37.40
2017-11-07T23:36:13.169Z,42.17
2017-11-07T23:38:40.692Z,36.60
2017-11-07T23:41:08.230Z,37.90
2017-11-07T23:43:35.722Z,41.83
2017-11-07T23:46:03.286Z,41.67
2017-11-07T23:48:30.764Z,38.43
2017-11-07T23:51:05.078Z,47.03
2017-11-07T23:53:32.599Z,41.37
2017-11-07T23:56:00.089Z,39.07
2017-11-07T23:58:30.303Z,33.37
